<?xml version="1.0" encoding="UTF-8" standalone="no" ?>
<gpx xmlns="http://www.topografix.com/GPX/1/1" xmlns:xsi="http://www.w3.org/2001/XMLSchema-instance" xsi:schemaLocation="http://www.topografix.com/GPX/1/1 http://www.topografix.com/GPX/1/1/gpx.xsd" version="1.1" creator="VisuGPX - https://www.visugpx.com">
  <metadata>
    <name>10 septembre 2024 Chevreuse à Église Saint-Rémi de Gif-sur-Yvette</name>
    <desc><![CDATA[Route saint Martin des 7 routes Notre-Dame]]></desc>
  </metadata>
  <trk>
    <name><![CDATA[(Saint Martin) Chevreuse à Église Saint-Rémi de Gif-sur-Yvette]]></name>
    <trkseg>
      <trkpt lat="48.70839" lon="2.03968">
        <ele>86.855302</ele>
        <time>2024-07-14T07:29:38.592Z</time>
      </trkpt>
      <trkpt lat="48.70835" lon="2.03942">
        <ele>86.855302</ele>
        <time>2024-07-14T07:29:56.638Z</time>
      </trkpt>
      <trkpt lat="48.70831" lon="2.03939">
        <ele>86.855302</ele>
        <time>2024-07-14T07:30:01.502Z</time>
      </trkpt>
      <trkpt lat="48.70815" lon="2.03944">
        <ele>86.855302</ele>
        <time>2024-07-14T07:30:18.371Z</time>
      </trkpt>
      <trkpt lat="48.70816" lon="2.03995">
        <ele>86.855302</ele>
        <time>2024-07-14T07:30:53.874Z</time>
      </trkpt>
      <trkpt lat="48.70816" lon="2.03996">
        <ele>86.855302</ele>
        <time>2024-07-14T07:30:54.048Z</time>
      </trkpt>
      <trkpt lat="48.7081" lon="2.04041">
        <ele>86.481717</ele>
        <time>2024-07-14T07:31:26.303Z</time>
      </trkpt>
      <trkpt lat="48.7079" lon="2.04026">
        <ele>85.85147</ele>
        <time>2024-07-14T07:31:49.104Z</time>
      </trkpt>
      <trkpt lat="48.70779" lon="2.04013">
        <ele>85.443391</ele>
        <time>2024-07-14T07:32:04.184Z</time>
      </trkpt>
      <trkpt lat="48.70759" lon="2.0398">
        <ele>84.561959</ele>
        <time>2024-07-14T07:32:36.389Z</time>
      </trkpt>
      <trkpt lat="48.70754" lon="2.03977">
        <ele>84.401236</ele>
        <time>2024-07-14T07:32:42.334Z</time>
      </trkpt>
      <trkpt lat="48.70745" lon="2.03932">
        <ele>83.485703</ele>
        <time>2024-07-14T07:33:15.346Z</time>
      </trkpt>
      <trkpt lat="48.70714" lon="2.03963">
        <ele>82.391827</ele>
        <time>2024-07-14T07:33:54.900Z</time>
      </trkpt>
      <trkpt lat="48.70672" lon="2.03978">
        <ele>81.451037</ele>
        <time>2024-07-14T07:34:40.492Z</time>
      </trkpt>
      <trkpt lat="48.7067" lon="2.03979">
        <ele>81.43159</ele>
        <time>2024-07-14T07:34:42.938Z</time>
      </trkpt>
      <trkpt lat="48.70665" lon="2.03981">
        <ele>81.38933</ele>
        <time>2024-07-14T07:34:48.285Z</time>
      </trkpt>
      <trkpt lat="48.70664" lon="2.03982">
        <ele>81.378722</ele>
        <time>2024-07-14T07:34:49.613Z</time>
      </trkpt>
      <trkpt lat="48.70656" lon="2.03966">
        <ele>81.263978</ele>
        <time>2024-07-14T07:35:03.864Z</time>
      </trkpt>
      <trkpt lat="48.7063" lon="2.03934">
        <ele>80.989401</ele>
        <time>2024-07-14T07:35:37.873Z</time>
      </trkpt>
      <trkpt lat="48.70544" lon="2.03823">
        <ele>80.146195</ele>
        <time>2024-07-14T07:37:31.547Z</time>
      </trkpt>
      <trkpt lat="48.70544" lon="2.03811">
        <ele>80.314203</ele>
        <time>2024-07-14T07:37:39.709Z</time>
      </trkpt>
      <trkpt lat="48.70542" lon="2.03766">
        <ele>80.955746</ele>
        <time>2024-07-14T07:38:11.172Z</time>
      </trkpt>
      <trkpt lat="48.70522" lon="2.03766">
        <ele>81.395737</ele>
        <time>2024-07-14T07:38:32.772Z</time>
      </trkpt>
      <trkpt lat="48.70505" lon="2.03767">
        <ele>81.758212</ele>
        <time>2024-07-14T07:38:50.577Z</time>
      </trkpt>
      <trkpt lat="48.70497" lon="2.03767">
        <ele>81.93291</ele>
        <time>2024-07-14T07:38:59.177Z</time>
      </trkpt>
      <trkpt lat="48.70468" lon="2.03766">
        <ele>82.562819</ele>
        <time>2024-07-14T07:39:30.764Z</time>
      </trkpt>
      <trkpt lat="48.70465" lon="2.03774">
        <ele>82.6971</ele>
        <time>2024-07-14T07:39:37.514Z</time>
      </trkpt>
      <trkpt lat="48.70458" lon="2.03774">
        <ele>82.833006</ele>
        <time>2024-07-14T07:39:44.388Z</time>
      </trkpt>
      <trkpt lat="48.70456" lon="2.03784">
        <ele>82.988111</ele>
        <time>2024-07-14T07:39:52.332Z</time>
      </trkpt>
      <trkpt lat="48.70453" lon="2.03828">
        <ele>83.60925</ele>
        <time>2024-07-14T07:40:24.303Z</time>
      </trkpt>
      <trkpt lat="48.70449" lon="2.0389">
        <ele>85.29148</ele>
        <time>2024-07-14T07:41:11.036Z</time>
      </trkpt>
      <trkpt lat="48.70439" lon="2.03935">
        <ele>86.970756</ele>
        <time>2024-07-14T07:41:47.762Z</time>
      </trkpt>
      <trkpt lat="48.7037" lon="2.03949">
        <ele>90.64344</ele>
        <time>2024-07-14T07:43:09.688Z</time>
      </trkpt>
      <trkpt lat="48.70356" lon="2.03955">
        <ele>91.386901</ele>
        <time>2024-07-14T07:43:26.561Z</time>
      </trkpt>
      <trkpt lat="48.70344" lon="2.03969">
        <ele>92.199931</ele>
        <time>2024-07-14T07:43:45.200Z</time>
      </trkpt>
      <trkpt lat="48.70332" lon="2.03989">
        <ele>93.151889</ele>
        <time>2024-07-14T07:44:07.312Z</time>
      </trkpt>
      <trkpt lat="48.70274" lon="2.04032">
        <ele>98.719227</ele>
        <time>2024-07-14T07:45:28.091Z</time>
      </trkpt>
      <trkpt lat="48.70108" lon="2.04085">
        <ele>115.540561</ele>
        <time>2024-07-14T07:49:13.843Z</time>
      </trkpt>
      <trkpt lat="48.70067" lon="2.04088">
        <ele>120.55159</ele>
        <time>2024-07-14T07:50:14.217Z</time>
      </trkpt>
      <trkpt lat="48.70015" lon="2.04076">
        <ele>126.941724</ele>
        <time>2024-07-14T07:51:30.155Z</time>
      </trkpt>
      <trkpt lat="48.69996" lon="2.04075">
        <ele>129.335709</ele>
        <time>2024-07-14T07:52:02.899Z</time>
      </trkpt>
      <trkpt lat="48.69961" lon="2.04038">
        <ele>134.556049</ele>
        <time>2024-07-14T07:53:11.617Z</time>
      </trkpt>
      <trkpt lat="48.69945" lon="2.04028">
        <ele>136.614825</ele>
        <time>2024-07-14T07:53:39.088Z</time>
      </trkpt>
      <trkpt lat="48.69918" lon="2.04012">
        <ele>140.095854</ele>
        <time>2024-07-14T07:54:23.159Z</time>
      </trkpt>
      <trkpt lat="48.69835" lon="2.03957">
        <ele>150.972251</ele>
        <time>2024-07-14T07:56:34.039Z</time>
      </trkpt>
      <trkpt lat="48.6981" lon="2.03941">
        <ele>153.543043</ele>
        <time>2024-07-14T07:57:08.276Z</time>
      </trkpt>
      <trkpt lat="48.69782" lon="2.03922">
        <ele>154.924643</ele>
        <time>2024-07-14T07:57:47.495Z</time>
      </trkpt>
      <trkpt lat="48.69651" lon="2.03832">
        <ele>161.211062</ele>
        <time>2024-07-14T08:00:28.730Z</time>
      </trkpt>
      <trkpt lat="48.69458" lon="2.03694">
        <ele>160.045154</ele>
        <time>2024-07-14T08:04:07.923Z</time>
      </trkpt>
      <trkpt lat="48.69456" lon="2.037">
        <ele>160.021131</ele>
        <time>2024-07-14T08:04:12.811Z</time>
      </trkpt>
      <trkpt lat="48.69431" lon="2.03785">
        <ele>159.719511</ele>
        <time>2024-07-14T08:05:15.065Z</time>
      </trkpt>
      <trkpt lat="48.69428" lon="2.03798">
        <ele>159.672749</ele>
        <time>2024-07-14T08:05:24.652Z</time>
      </trkpt>
      <trkpt lat="48.69428" lon="2.03806">
        <ele>159.645013</ele>
        <time>2024-07-14T08:05:30.356Z</time>
      </trkpt>
      <trkpt lat="48.69408" lon="2.03854">
        <ele>159.459519</ele>
        <time>2024-07-14T08:06:07.875Z</time>
      </trkpt>
      <trkpt lat="48.69396" lon="2.03856">
        <ele>159.396992</ele>
        <time>2024-07-14T08:06:20.487Z</time>
      </trkpt>
      <trkpt lat="48.69399" lon="2.03891">
        <ele>159.414564</ele>
        <time>2024-07-14T08:06:44.928Z</time>
      </trkpt>
      <trkpt lat="48.69427" lon="2.0417">
        <ele>160.818076</ele>
        <time>2024-07-14T08:09:56.415Z</time>
      </trkpt>
      <trkpt lat="48.69403" lon="2.04587">
        <ele>163.583621</ele>
        <time>2024-07-14T08:14:44.147Z</time>
      </trkpt>
      <trkpt lat="48.69393" lon="2.0464">
        <ele>163.905691</ele>
        <time>2024-07-14T08:15:21.473Z</time>
      </trkpt>
      <trkpt lat="48.69384" lon="2.04772">
        <ele>164.287749</ele>
        <time>2024-07-14T08:16:49.862Z</time>
      </trkpt>
      <trkpt lat="48.69386" lon="2.0497">
        <ele>164.478734</ele>
        <time>2024-07-14T08:19:01.872Z</time>
      </trkpt>
      <trkpt lat="48.69403" lon="2.05026">
        <ele>164.183391</ele>
        <time>2024-07-14T08:19:42.446Z</time>
      </trkpt>
      <trkpt lat="48.69403" lon="2.05026">
        <ele>164.182422</ele>
        <time>2024-07-14T08:19:42.614Z</time>
      </trkpt>
      <trkpt lat="48.69482" lon="2.05231">
        <ele>162.692222</ele>
        <time>2024-07-14T08:22:22.806Z</time>
      </trkpt>
      <trkpt lat="48.6949" lon="2.05245">
        <ele>162.450508</ele>
        <time>2024-07-14T08:22:35.417Z</time>
      </trkpt>
      <trkpt lat="48.69511" lon="2.05297">
        <ele>161.637015</ele>
        <time>2024-07-14T08:23:17.808Z</time>
      </trkpt>
      <trkpt lat="48.69533" lon="2.05331">
        <ele>161.008572</ele>
        <time>2024-07-14T08:23:50.529Z</time>
      </trkpt>
      <trkpt lat="48.69527" lon="2.05436">
        <ele>159.617553</ele>
        <time>2024-07-14T08:25:02.638Z</time>
      </trkpt>
      <trkpt lat="48.69474" lon="2.0547">
        <ele>157.319403</ele>
        <time>2024-07-14T08:26:02.820Z</time>
      </trkpt>
      <trkpt lat="48.6942" lon="2.05495">
        <ele>155.027965</ele>
        <time>2024-07-14T08:27:02.940Z</time>
      </trkpt>
      <trkpt lat="48.69449" lon="2.05528">
        <ele>153.558076</ele>
        <time>2024-07-14T08:27:42.543Z</time>
      </trkpt>
      <trkpt lat="48.69488" lon="2.05535">
        <ele>151.435208</ele>
        <time>2024-07-14T08:28:25.782Z</time>
      </trkpt>
      <trkpt lat="48.69513" lon="2.05555">
        <ele>148.347065</ele>
        <time>2024-07-14T08:28:58.514Z</time>
      </trkpt>
      <trkpt lat="48.69524" lon="2.05552">
        <ele>147.059105</ele>
        <time>2024-07-14T08:29:12.124Z</time>
      </trkpt>
      <trkpt lat="48.69508" lon="2.05626">
        <ele>141.372067</ele>
        <time>2024-07-14T08:30:15.361Z</time>
      </trkpt>
      <trkpt lat="48.69505" lon="2.05668">
        <ele>138.272899</ele>
        <time>2024-07-14T08:30:50.840Z</time>
      </trkpt>
      <trkpt lat="48.69509" lon="2.05673">
        <ele>137.711488</ele>
        <time>2024-07-14T08:30:57.315Z</time>
      </trkpt>
      <trkpt lat="48.69509" lon="2.05687">
        <ele>136.656232</ele>
        <time>2024-07-14T08:31:09.610Z</time>
      </trkpt>
      <trkpt lat="48.69503" lon="2.05706">
        <ele>135.15079</ele>
        <time>2024-07-14T08:31:26.749Z</time>
      </trkpt>
      <trkpt lat="48.69505" lon="2.05741">
        <ele>132.636218</ele>
        <time>2024-07-14T08:31:55.851Z</time>
      </trkpt>
      <trkpt lat="48.69501" lon="2.05742">
        <ele>132.29801</ele>
        <time>2024-07-14T08:31:59.890Z</time>
      </trkpt>
      <trkpt lat="48.69498" lon="2.05781">
        <ele>129.557252</ele>
        <time>2024-07-14T08:32:32.534Z</time>
      </trkpt>
      <trkpt lat="48.695" lon="2.05896">
        <ele>121.527245</ele>
        <time>2024-07-14T08:34:06.959Z</time>
      </trkpt>
      <trkpt lat="48.69498" lon="2.05906">
        <ele>120.832843</ele>
        <time>2024-07-14T08:34:15.106Z</time>
      </trkpt>
      <trkpt lat="48.69566" lon="2.05903">
        <ele>113.726822</ele>
        <time>2024-07-14T08:35:33.980Z</time>
      </trkpt>
      <trkpt lat="48.69627" lon="2.05918">
        <ele>110.936592</ele>
        <time>2024-07-14T08:36:41.818Z</time>
      </trkpt>
      <trkpt lat="48.69702" lon="2.05943">
        <ele>107.562882</ele>
        <time>2024-07-14T08:38:03.793Z</time>
      </trkpt>
      <trkpt lat="48.69734" lon="2.05957">
        <ele>106.066051</ele>
        <time>2024-07-14T08:38:40.384Z</time>
      </trkpt>
      <trkpt lat="48.69764" lon="2.05976">
        <ele>104.739557</ele>
        <time>2024-07-14T08:39:15.078Z</time>
      </trkpt>
      <trkpt lat="48.69771" lon="2.05991">
        <ele>104.244578</ele>
        <time>2024-07-14T08:39:28.437Z</time>
      </trkpt>
      <trkpt lat="48.69759" lon="2.06052">
        <ele>102.562169</ele>
        <time>2024-07-14T08:40:13.670Z</time>
      </trkpt>
      <trkpt lat="48.69746" lon="2.06113">
        <ele>100.862227</ele>
        <time>2024-07-14T08:40:59.589Z</time>
      </trkpt>
      <trkpt lat="48.69825" lon="2.06147">
        <ele>97.526247</ele>
        <time>2024-07-14T08:42:28.652Z</time>
      </trkpt>
      <trkpt lat="48.69859" lon="2.06166">
        <ele>95.958576</ele>
        <time>2024-07-14T08:43:08.457Z</time>
      </trkpt>
      <trkpt lat="48.69901" lon="2.06198">
        <ele>93.937765</ele>
        <time>2024-07-14T08:43:59.328Z</time>
      </trkpt>
      <trkpt lat="48.6996" lon="2.06251">
        <ele>91.006976</ele>
        <time>2024-07-14T08:45:13.418Z</time>
      </trkpt>
      <trkpt lat="48.70016" lon="2.06322">
        <ele>87.90758</ele>
        <time>2024-07-14T08:46:33.580Z</time>
      </trkpt>
      <trkpt lat="48.70052" lon="2.06377">
        <ele>85.760769</ele>
        <time>2024-07-14T08:47:28.994Z</time>
      </trkpt>
      <trkpt lat="48.70093" lon="2.06456">
        <ele>83.052009</ele>
        <time>2024-07-14T08:48:41.607Z</time>
      </trkpt>
      <trkpt lat="48.70119" lon="2.06522">
        <ele>82.116584</ele>
        <time>2024-07-14T08:49:35.598Z</time>
      </trkpt>
      <trkpt lat="48.70143" lon="2.06606">
        <ele>80.999639</ele>
        <time>2024-07-14T08:50:38.933Z</time>
      </trkpt>
      <trkpt lat="48.70157" lon="2.06669">
        <ele>80.181281</ele>
        <time>2024-07-14T08:51:23.957Z</time>
      </trkpt>
      <trkpt lat="48.70184" lon="2.06808">
        <ele>81.714149</ele>
        <time>2024-07-14T08:53:02.910Z</time>
      </trkpt>
      <trkpt lat="48.70214" lon="2.06961">
        <ele>84.374685</ele>
        <time>2024-07-14T08:55:02.199Z</time>
      </trkpt>
      <trkpt lat="48.70199" lon="2.06962">
        <ele>84.904862</ele>
        <time>2024-07-14T08:55:18.658Z</time>
      </trkpt>
      <trkpt lat="48.7011" lon="2.07124">
        <ele>90.152176</ele>
        <time>2024-07-14T08:57:59.227Z</time>
      </trkpt>
      <trkpt lat="48.70104" lon="2.07137">
        <ele>90.540199</ele>
        <time>2024-07-14T08:58:10.353Z</time>
      </trkpt>
      <trkpt lat="48.70105" lon="2.07142">
        <ele>90.672225</ele>
        <time>2024-07-14T08:58:14.230Z</time>
      </trkpt>
      <trkpt lat="48.70103" lon="2.07148">
        <ele>90.865773</ele>
        <time>2024-07-14T08:58:19.918Z</time>
      </trkpt>
      <trkpt lat="48.70105" lon="2.07158">
        <ele>91.095406</ele>
        <time>2024-07-14T08:58:27.460Z</time>
      </trkpt>
      <trkpt lat="48.70123" lon="2.07191">
        <ele>91.113253</ele>
        <time>2024-07-14T08:58:57.003Z</time>
      </trkpt>
      <trkpt lat="48.7014" lon="2.07232">
        <ele>91.134214</ele>
        <time>2024-07-14T08:59:30.991Z</time>
      </trkpt>
      <trkpt lat="48.70167" lon="2.07317">
        <ele>91.174115</ele>
        <time>2024-07-14T09:00:33.123Z</time>
      </trkpt>
      <trkpt lat="48.70181" lon="2.07373">
        <ele>91.199629</ele>
        <time>2024-07-14T09:01:14.083Z</time>
      </trkpt>
      <trkpt lat="48.70183" lon="2.0741">
        <ele>91.063621</ele>
        <time>2024-07-14T09:01:39.605Z</time>
      </trkpt>
      <trkpt lat="48.70204" lon="2.07464">
        <ele>90.22603</ele>
        <time>2024-07-14T09:02:22.837Z</time>
      </trkpt>
      <trkpt lat="48.70225" lon="2.07487">
        <ele>89.694402</ele>
        <time>2024-07-14T09:02:50.213Z</time>
      </trkpt>
      <trkpt lat="48.70266" lon="2.07546">
        <ele>88.538114</ele>
        <time>2024-07-14T09:03:49.662Z</time>
      </trkpt>
      <trkpt lat="48.70279" lon="2.07565">
        <ele>88.180175</ele>
        <time>2024-07-14T09:04:08.108Z</time>
      </trkpt>
      <trkpt lat="48.70288" lon="2.07587">
        <ele>87.83822</ele>
        <time>2024-07-14T09:04:25.546Z</time>
      </trkpt>
      <trkpt lat="48.70296" lon="2.07633">
        <ele>87.368704</ele>
        <time>2024-07-14T09:04:58.572Z</time>
      </trkpt>
      <trkpt lat="48.70294" lon="2.07704">
        <ele>86.889711</ele>
        <time>2024-07-14T09:05:46.382Z</time>
      </trkpt>
      <trkpt lat="48.7029" lon="2.0777">
        <ele>86.434166</ele>
        <time>2024-07-14T09:06:31.481Z</time>
      </trkpt>
      <trkpt lat="48.70285" lon="2.07834">
        <ele>85.999989</ele>
        <time>2024-07-14T09:07:14.148Z</time>
      </trkpt>
      <trkpt lat="48.70278" lon="2.07935">
        <ele>85.015698</ele>
        <time>2024-07-14T09:08:21.763Z</time>
      </trkpt>
      <trkpt lat="48.70278" lon="2.07941">
        <ele>84.944846</ele>
        <time>2024-07-14T09:08:25.802Z</time>
      </trkpt>
      <trkpt lat="48.70277" lon="2.07952">
        <ele>84.804778</ele>
        <time>2024-07-14T09:08:33.605Z</time>
      </trkpt>
      <trkpt lat="48.70268" lon="2.08098">
        <ele>83.055379</ele>
        <time>2024-07-14T09:10:13.778Z</time>
      </trkpt>
      <trkpt lat="48.70265" lon="2.08112">
        <ele>82.870006</ele>
        <time>2024-07-14T09:10:24.551Z</time>
      </trkpt>
      <trkpt lat="48.70257" lon="2.08127">
        <ele>82.642799</ele>
        <time>2024-07-14T09:10:37.763Z</time>
      </trkpt>
      <trkpt lat="48.70264" lon="2.08134">
        <ele>82.484533</ele>
        <time>2024-07-14T09:10:47.111Z</time>
      </trkpt>
      <trkpt lat="48.70298" lon="2.08173">
        <ele>80.874611</ele>
        <time>2024-07-14T09:11:32.853Z</time>
      </trkpt>
      <trkpt lat="48.70344" lon="2.08234">
        <ele>78.479231</ele>
        <time>2024-07-14T09:12:39.149Z</time>
      </trkpt>
      <trkpt lat="48.70361" lon="2.08273">
        <ele>77.273901</ele>
        <time>2024-07-14T09:13:12.696Z</time>
      </trkpt>
      <trkpt lat="48.70371" lon="2.08315">
        <ele>76.108418</ele>
        <time>2024-07-14T09:13:45.320Z</time>
      </trkpt>
      <trkpt lat="48.70385" lon="2.08451">
        <ele>73.756698</ele>
        <time>2024-07-14T09:15:23.102Z</time>
      </trkpt>
      <trkpt lat="48.70389" lon="2.08457">
        <ele>73.621057</ele>
        <time>2024-07-14T09:15:29.415Z</time>
      </trkpt>
      <trkpt lat="48.70385" lon="2.08468">
        <ele>73.43659</ele>
        <time>2024-07-14T09:15:37.989Z</time>
      </trkpt>
      <trkpt lat="48.70384" lon="2.08485">
        <ele>73.183344</ele>
        <time>2024-07-14T09:15:49.796Z</time>
      </trkpt>
      <trkpt lat="48.70384" lon="2.08565">
        <ele>71.991323</ele>
        <time>2024-07-14T09:16:44.579Z</time>
      </trkpt>
      <trkpt lat="48.70373" lon="2.08648">
        <ele>71.692833</ele>
        <time>2024-07-14T09:17:41.009Z</time>
      </trkpt>
      <trkpt lat="48.70362" lon="2.08795">
        <ele>72.963786</ele>
        <time>2024-07-14T09:19:22.876Z</time>
      </trkpt>
      <trkpt lat="48.70368" lon="2.08846">
        <ele>73.414019</ele>
        <time>2024-07-14T09:20:00.380Z</time>
      </trkpt>
      <trkpt lat="48.70365" lon="2.08855">
        <ele>73.49765</ele>
        <time>2024-07-14T09:20:07.400Z</time>
      </trkpt>
      <trkpt lat="48.70353" lon="2.08863">
        <ele>73.667247</ele>
        <time>2024-07-14T09:20:21.774Z</time>
      </trkpt>
      <trkpt lat="48.70337" lon="2.08868">
        <ele>74.164373</ele>
        <time>2024-07-14T09:20:39.784Z</time>
      </trkpt>
      <trkpt lat="48.70325" lon="2.08867">
        <ele>74.540226</ele>
        <time>2024-07-14T09:20:52.884Z</time>
      </trkpt>
      <trkpt lat="48.70309" lon="2.08867">
        <ele>75.060251</ele>
        <time>2024-07-14T09:21:10.999Z</time>
      </trkpt>
      <trkpt lat="48.70298" lon="2.0888">
        <ele>75.495725</ele>
        <time>2024-07-14T09:21:26.045Z</time>
      </trkpt>
      <trkpt lat="48.70282" lon="2.08956">
        <ele>77.185585</ele>
        <time>2024-07-14T09:22:25.017Z</time>
      </trkpt>
      <trkpt lat="48.70277" lon="2.0896">
        <ele>77.37013</ele>
        <time>2024-07-14T09:22:31.472Z</time>
      </trkpt>
      <trkpt lat="48.70207" lon="2.08965">
        <ele>79.586825</ele>
        <time>2024-07-14T09:23:49.606Z</time>
      </trkpt>
      <trkpt lat="48.70203" lon="2.0897">
        <ele>79.728332</ele>
        <time>2024-07-14T09:23:55.230Z</time>
      </trkpt>
      <trkpt lat="48.702" lon="2.08981">
        <ele>79.956808</ele>
        <time>2024-07-14T09:24:04.269Z</time>
      </trkpt>
      <trkpt lat="48.70185" lon="2.09078">
        <ele>81.793273</ele>
        <time>2024-07-14T09:25:17.119Z</time>
      </trkpt>
      <trkpt lat="48.7018" lon="2.0912">
        <ele>82.582438</ele>
        <time>2024-07-14T09:25:48.191Z</time>
      </trkpt>
      <trkpt lat="48.70173" lon="2.09145">
        <ele>83.076464</ele>
        <time>2024-07-14T09:26:07.605Z</time>
      </trkpt>
      <trkpt lat="48.70147" lon="2.09201">
        <ele>84.328153</ele>
        <time>2024-07-14T09:26:56.389Z</time>
      </trkpt>
      <trkpt lat="48.70142" lon="2.09223">
        <ele>84.705765</ele>
        <time>2024-07-14T09:27:13.271Z</time>
      </trkpt>
      <trkpt lat="48.70125" lon="2.09272">
        <ele>85.51357</ele>
        <time>2024-07-14T09:27:52.292Z</time>
      </trkpt>
      <trkpt lat="48.70073" lon="2.09445">
        <ele>88.33193</ele>
        <time>2024-07-14T09:30:08.866Z</time>
      </trkpt>
      <trkpt lat="48.7002" lon="2.09612">
        <ele>89.422991</ele>
        <time>2024-07-14T09:32:17.812Z</time>
      </trkpt>
      <trkpt lat="48.69985" lon="2.09776">
        <ele>88.554811</ele>
        <time>2024-07-14T09:34:13.694Z</time>
      </trkpt>
      <trkpt lat="48.69973" lon="2.09826">
        <ele>87.555118</ele>
        <time>2024-07-14T09:34:50.458Z</time>
      </trkpt>
      <trkpt lat="48.69962" lon="2.09879">
        <ele>86.490751</ele>
        <time>2024-07-14T09:35:30.453Z</time>
      </trkpt>
      <trkpt lat="48.69986" lon="2.09893">
        <ele>85.767422</ele>
        <time>2024-07-14T09:35:57.664Z</time>
      </trkpt>
      <trkpt lat="48.70007" lon="2.09913">
        <ele>85.049228</ele>
        <time>2024-07-14T09:36:24.819Z</time>
      </trkpt>
      <trkpt lat="48.70019" lon="2.09909">
        <ele>84.66475</ele>
        <time>2024-07-14T09:36:37.551Z</time>
      </trkpt>
      <trkpt lat="48.70045" lon="2.0991">
        <ele>83.334399</ele>
        <time>2024-07-14T09:37:06.924Z</time>
      </trkpt>
      <trkpt lat="48.7007" lon="2.09919">
        <ele>82.074158</ele>
        <time>2024-07-14T09:37:35.079Z</time>
      </trkpt>
      <trkpt lat="48.70073" lon="2.0992">
        <ele>81.934862</ele>
        <time>2024-07-14T09:37:38.194Z</time>
      </trkpt>
      <trkpt lat="48.70081" lon="2.09926">
        <ele>81.476079</ele>
        <time>2024-07-14T09:37:48.401Z</time>
      </trkpt>
      <trkpt lat="48.70078" lon="2.09937">
        <ele>81.067924</ele>
        <time>2024-07-14T09:37:57.480Z</time>
      </trkpt>
      <trkpt lat="48.70092" lon="2.09945">
        <ele>80.347063</ele>
        <time>2024-07-14T09:38:13.816Z</time>
      </trkpt>
      <trkpt lat="48.70094" lon="2.09934">
        <ele>79.969048</ele>
        <time>2024-07-14T09:38:22.206Z</time>
      </trkpt>
      <trkpt lat="48.70096" lon="2.09928">
        <ele>79.780741</ele>
        <time>2024-07-14T09:38:26.378Z</time>
      </trkpt>
      <trkpt lat="48.70105" lon="2.09943">
        <ele>79.097313</ele>
        <time>2024-07-14T09:38:41.700Z</time>
      </trkpt>
      <trkpt lat="48.7011" lon="2.0994">
        <ele>78.848727</ele>
        <time>2024-07-14T09:38:47.338Z</time>
      </trkpt>
      <trkpt lat="48.70112" lon="2.09946">
        <ele>78.639529</ele>
        <time>2024-07-14T09:38:52.121Z</time>
      </trkpt>
      <trkpt lat="48.70119" lon="2.09945">
        <ele>78.251857</ele>
        <time>2024-07-14T09:39:00.705Z</time>
      </trkpt>
      <trkpt lat="48.70129" lon="2.09962">
        <ele>77.508276</ele>
        <time>2024-07-14T09:39:17.119Z</time>
      </trkpt>
      <trkpt lat="48.70143" lon="2.09984">
        <ele>76.529383</ele>
        <time>2024-07-14T09:39:39.026Z</time>
      </trkpt>
      <trkpt lat="48.70149" lon="2.10016">
        <ele>75.604467</ele>
        <time>2024-07-14T09:40:02.443Z</time>
      </trkpt>
      <trkpt lat="48.7016" lon="2.10013">
        <ele>75.230635</ele>
        <time>2024-07-14T09:40:15.441Z</time>
      </trkpt>
      <trkpt lat="48.70174" lon="2.10017">
        <ele>74.78599</ele>
        <time>2024-07-14T09:40:30.447Z</time>
      </trkpt>
      <trkpt lat="48.70173" lon="2.10023">
        <ele>74.638337</ele>
        <time>2024-07-14T09:40:35.301Z</time>
      </trkpt>
      <trkpt lat="48.70198" lon="2.10085">
        <ele>73.102426</ele>
        <time>2024-07-14T09:41:26.606Z</time>
      </trkpt>
      <trkpt lat="48.70202" lon="2.10086">
        <ele>72.981209</ele>
        <time>2024-07-14T09:41:30.716Z</time>
      </trkpt>
      <trkpt lat="48.70206" lon="2.10087">
        <ele>72.836661</ele>
        <time>2024-07-14T09:41:35.532Z</time>
      </trkpt>
      <trkpt lat="48.70206" lon="2.10096">
        <ele>72.639928</ele>
        <time>2024-07-14T09:41:42.066Z</time>
      </trkpt>
      <trkpt lat="48.70226" lon="2.10113">
        <ele>71.890254</ele>
        <time>2024-07-14T09:42:06.874Z</time>
      </trkpt>
      <trkpt lat="48.70228" lon="2.10118">
        <ele>71.788329</ele>
        <time>2024-07-14T09:42:10.235Z</time>
      </trkpt>
      <trkpt lat="48.70223" lon="2.10135">
        <ele>71.394365</ele>
        <time>2024-07-14T09:42:23.286Z</time>
      </trkpt>
      <trkpt lat="48.70223" lon="2.1015">
        <ele>71.07298</ele>
        <time>2024-07-14T09:42:33.653Z</time>
      </trkpt>
      <trkpt lat="48.70231" lon="2.10177">
        <ele>70.455637</ele>
        <time>2024-07-14T09:42:54.033Z</time>
      </trkpt>
      <trkpt lat="48.70234" lon="2.10204">
        <ele>70.03645</ele>
        <time>2024-07-14T09:43:12.592Z</time>
      </trkpt>
      <trkpt lat="48.70233" lon="2.1024">
        <ele>69.805677</ele>
        <time>2024-07-14T09:43:37.621Z</time>
      </trkpt>
      <trkpt lat="48.70221" lon="2.10264">
        <ele>69.617701</ele>
        <time>2024-07-14T09:43:57.840Z</time>
      </trkpt>
      <trkpt lat="48.70214" lon="2.10289">
        <ele>69.444877</ele>
        <time>2024-07-14T09:44:16.287Z</time>
      </trkpt>
      <trkpt lat="48.70198" lon="2.10326">
        <ele>69.167069</ele>
        <time>2024-07-14T09:44:45.716Z</time>
      </trkpt>
      <trkpt lat="48.7019" lon="2.10361">
        <ele>68.932886</ele>
        <time>2024-07-14T09:45:10.510Z</time>
      </trkpt>
      <trkpt lat="48.70191" lon="2.10378">
        <ele>68.831056</ele>
        <time>2024-07-14T09:45:21.329Z</time>
      </trkpt>
      <trkpt lat="48.70196" lon="2.10404">
        <ele>68.654386</ele>
        <time>2024-07-14T09:45:39.909Z</time>
      </trkpt>
      <trkpt lat="48.70216" lon="2.10489">
        <ele>68.27215</ele>
        <time>2024-07-14T09:46:39.693Z</time>
      </trkpt>
      <trkpt lat="48.70223" lon="2.10536">
        <ele>68.160802</ele>
        <time>2024-07-14T09:47:11.567Z</time>
      </trkpt>
      <trkpt lat="48.70231" lon="2.10574">
        <ele>68.06999</ele>
        <time>2024-07-14T09:47:37.698Z</time>
      </trkpt>
      <trkpt lat="48.70238" lon="2.10602">
        <ele>67.999795</ele>
        <time>2024-07-14T09:47:58.033Z</time>
      </trkpt>
      <trkpt lat="48.7025" lon="2.10632">
        <ele>67.918206</ele>
        <time>2024-07-14T09:48:21.476Z</time>
      </trkpt>
      <trkpt lat="48.7025" lon="2.10661">
        <ele>67.850919</ele>
        <time>2024-07-14T09:48:40.739Z</time>
      </trkpt>
      <trkpt lat="48.7025" lon="2.10664">
        <ele>67.844385</ele>
        <time>2024-07-14T09:48:42.581Z</time>
      </trkpt>
      <trkpt lat="48.7025" lon="2.10676">
        <ele>67.816302</ele>
        <time>2024-07-14T09:48:50.699Z</time>
      </trkpt>
      <trkpt lat="48.70251" lon="2.10714">
        <ele>67.758468</ele>
        <time>2024-07-14T09:49:16.176Z</time>
      </trkpt>
      <trkpt lat="48.70256" lon="2.10745">
        <ele>67.796207</ele>
        <time>2024-07-14T09:49:37.775Z</time>
      </trkpt>
      <trkpt lat="48.70248" lon="2.10794">
        <ele>67.854084</ele>
        <time>2024-07-14T09:50:11.114Z</time>
      </trkpt>
      <trkpt lat="48.70244" lon="2.10817">
        <ele>67.881217</ele>
        <time>2024-07-14T09:50:26.805Z</time>
      </trkpt>
      <trkpt lat="48.70224" lon="2.1088">
        <ele>67.962102</ele>
        <time>2024-07-14T09:51:13.274Z</time>
      </trkpt>
      <trkpt lat="48.70217" lon="2.10911">
        <ele>68.001295</ele>
        <time>2024-07-14T09:51:35.939Z</time>
      </trkpt>
      <trkpt lat="48.70208" lon="2.10935">
        <ele>68.032755</ele>
        <time>2024-07-14T09:51:54.041Z</time>
      </trkpt>
      <trkpt lat="48.70206" lon="2.10943">
        <ele>68.042548</ele>
        <time>2024-07-14T09:51:59.739Z</time>
      </trkpt>
      <trkpt lat="48.70203" lon="2.10953">
        <ele>68.055051</ele>
        <time>2024-07-14T09:52:07.037Z</time>
      </trkpt>
      <trkpt lat="48.70191" lon="2.11007">
        <ele>68.054864</ele>
        <time>2024-07-14T09:52:45.732Z</time>
      </trkpt>
      <trkpt lat="48.7019" lon="2.11014">
        <ele>68.053709</ele>
        <time>2024-07-14T09:52:50.288Z</time>
      </trkpt>
      <trkpt lat="48.70195" lon="2.11023">
        <ele>68.05192</ele>
        <time>2024-07-14T09:52:57.225Z</time>
      </trkpt>
      <trkpt lat="48.70202" lon="2.11022">
        <ele>68.05005</ele>
        <time>2024-07-14T09:53:04.451Z</time>
      </trkpt>
      <trkpt lat="48.70206" lon="2.11022">
        <ele>68.048986</ele>
        <time>2024-07-14T09:53:08.654Z</time>
      </trkpt>
      <trkpt lat="48.70222" lon="2.11066">
        <ele>68.040473</ele>
        <time>2024-07-14T09:53:42.007Z</time>
      </trkpt>
      <trkpt lat="48.70224" lon="2.11097">
        <ele>68.035058</ele>
        <time>2024-07-14T09:54:03.278Z</time>
      </trkpt>
      <trkpt lat="48.70241" lon="2.11134">
        <ele>68.027494</ele>
        <time>2024-07-14T09:54:32.561Z</time>
      </trkpt>
      <trkpt lat="48.70243" lon="2.11138">
        <ele>68.026562</ele>
        <time>2024-07-14T09:54:36.154Z</time>
      </trkpt>
      <trkpt lat="48.70244" lon="2.11141">
        <ele>68.025876</ele>
        <time>2024-07-14T09:54:38.827Z</time>
      </trkpt>
      <trkpt lat="48.70272" lon="2.11128">
        <ele>68.018265</ele>
        <time>2024-07-14T09:55:08.650Z</time>
      </trkpt>
      <trkpt lat="48.70282" lon="2.11127">
        <ele>67.981882</ele>
        <time>2024-07-14T09:55:18.225Z</time>
      </trkpt>
      <trkpt lat="48.7028" lon="2.11225">
        <ele>67.38532</ele>
        <time>2024-07-14T09:56:24.531Z</time>
      </trkpt>
      <trkpt lat="48.70274" lon="2.1125">
        <ele>67.224962</ele>
        <time>2024-07-14T09:56:42.385Z</time>
      </trkpt>
      <trkpt lat="48.70261" lon="2.1127">
        <ele>67.054761</ele>
        <time>2024-07-14T09:57:01.236Z</time>
      </trkpt>
      <trkpt lat="48.70255" lon="2.11284">
        <ele>66.950597</ele>
        <time>2024-07-14T09:57:12.742Z</time>
      </trkpt>
      <trkpt lat="48.70253" lon="2.11304">
        <ele>66.831397</ele>
        <time>2024-07-14T09:57:26.015Z</time>
      </trkpt>
      <trkpt lat="48.70233" lon="2.11399">
        <ele>66.349147</ele>
        <time>2024-07-14T09:58:33.322Z</time>
      </trkpt>
      <trkpt lat="48.70215" lon="2.1147">
        <ele>66.316825</ele>
        <time>2024-07-14T09:59:24.300Z</time>
      </trkpt>
      <trkpt lat="48.70176" lon="2.11461">
        <ele>66.291259</ele>
        <time>2024-07-14T10:00:04.310Z</time>
      </trkpt>
      <trkpt lat="48.70118" lon="2.11432">
        <ele>66.25263</ele>
        <time>2024-07-14T10:01:05.575Z</time>
      </trkpt>
      <trkpt lat="48.70107" lon="2.11484">
        <ele>66.230885</ele>
        <time>2024-07-14T10:01:42.350Z</time>
      </trkpt>
      <trkpt lat="48.70101" lon="2.11565">
        <ele>66.19946</ele>
        <time>2024-07-14T10:02:37.085Z</time>
      </trkpt>
      <trkpt lat="48.70079" lon="2.11644">
        <ele>66.166832</ele>
        <time>2024-07-14T10:03:33.366Z</time>
      </trkpt>
      <trkpt lat="48.7006" lon="2.11734">
        <ele>66.048645</ele>
        <time>2024-07-14T10:04:36.904Z</time>
      </trkpt>
      <trkpt lat="48.7006" lon="2.1174">
        <ele>66.02407</ele>
        <time>2024-07-14T10:04:40.894Z</time>
      </trkpt>
      <trkpt lat="48.70067" lon="2.11762">
        <ele>65.922925</ele>
        <time>2024-07-14T10:04:57.633Z</time>
      </trkpt>
      <trkpt lat="48.70064" lon="2.1177">
        <ele>65.887987</ele>
        <time>2024-07-14T10:05:03.331Z</time>
      </trkpt>
      <trkpt lat="48.70061" lon="2.11779">
        <ele>65.845487</ele>
        <time>2024-07-14T10:05:10.244Z</time>
      </trkpt>
      <trkpt lat="48.70059" lon="2.11797">
        <ele>65.771747</ele>
        <time>2024-07-14T10:05:22.252Z</time>
      </trkpt>
      <trkpt lat="48.70062" lon="2.11823">
        <ele>65.662899</ele>
        <time>2024-07-14T10:05:40.165Z</time>
      </trkpt>
      <trkpt lat="48.70091" lon="2.11949">
        <ele>65.114553</ele>
        <time>2024-07-14T10:07:09.796Z</time>
      </trkpt>
      <trkpt lat="48.70101" lon="2.12037">
        <ele>64.981817</ele>
        <time>2024-07-14T10:08:08.916Z</time>
      </trkpt>
      <trkpt lat="48.70113" lon="2.12086">
        <ele>64.949584</ele>
        <time>2024-07-14T10:08:43.596Z</time>
      </trkpt>
      <trkpt lat="48.70114" lon="2.12107">
        <ele>64.936557</ele>
        <time>2024-07-14T10:08:57.586Z</time>
      </trkpt>
      <trkpt lat="48.70096" lon="2.12211">
        <ele>64.87038</ele>
        <time>2024-07-14T10:10:09.208Z</time>
      </trkpt>
      <trkpt lat="48.70089" lon="2.12242">
        <ele>64.846819</ele>
        <time>2024-07-14T10:10:30.738Z</time>
      </trkpt>
      <trkpt lat="48.70079" lon="2.12272">
        <ele>64.809731</ele>
        <time>2024-07-14T10:10:53.065Z</time>
      </trkpt>
      <trkpt lat="48.70032" lon="2.1239">
        <ele>64.65775</ele>
        <time>2024-07-14T10:12:25.019Z</time>
      </trkpt>
      <trkpt lat="48.70027" lon="2.12413">
        <ele>64.631477</ele>
        <time>2024-07-14T10:12:40.964Z</time>
      </trkpt>
      <trkpt lat="48.7003" lon="2.12426">
        <ele>64.617341</ele>
        <time>2024-07-14T10:12:49.419Z</time>
      </trkpt>
      <trkpt lat="48.70037" lon="2.12435">
        <ele>64.601647</ele>
        <time>2024-07-14T10:12:58.955Z</time>
      </trkpt>
      <trkpt lat="48.70065" lon="2.12444">
        <ele>64.555213</ele>
        <time>2024-07-14T10:13:27.476Z</time>
      </trkpt>
      <trkpt lat="48.70091" lon="2.12459">
        <ele>64.540174</ele>
        <time>2024-07-14T10:13:55.867Z</time>
      </trkpt>
      <trkpt lat="48.70122" lon="2.12464">
        <ele>64.52345</ele>
        <time>2024-07-14T10:14:27.434Z</time>
      </trkpt>
      <trkpt lat="48.7013" lon="2.12484">
        <ele>64.515426</ele>
        <time>2024-07-14T10:14:42.587Z</time>
      </trkpt>
      <trkpt lat="48.70128" lon="2.12505">
        <ele>64.507939</ele>
        <time>2024-07-14T10:14:56.679Z</time>
      </trkpt>
      <trkpt lat="48.70128" lon="2.12537">
        <ele>64.496815</ele>
        <time>2024-07-14T10:15:17.624Z</time>
      </trkpt>
      <trkpt lat="48.7011" lon="2.12561">
        <ele>64.483753</ele>
        <time>2024-07-14T10:15:42.219Z</time>
      </trkpt>
      <trkpt lat="48.70101" lon="2.12572">
        <ele>64.477562</ele>
        <time>2024-07-14T10:15:53.883Z</time>
      </trkpt>
      <trkpt lat="48.70098" lon="2.12576">
        <ele>64.475334</ele>
        <time>2024-07-14T10:15:58.156Z</time>
      </trkpt>
      <trkpt lat="48.70093" lon="2.12583">
        <ele>64.472021</ele>
        <time>2024-07-14T10:16:04.463Z</time>
      </trkpt>
      <trkpt lat="48.70086" lon="2.12592">
        <ele>64.467181</ele>
        <time>2024-07-14T10:16:13.576Z</time>
      </trkpt>
      <trkpt lat="48.70045" lon="2.12646">
        <ele>64.415646</ele>
        <time>2024-07-14T10:17:08.190Z</time>
      </trkpt>
      <trkpt lat="48.70035" lon="2.12659">
        <ele>64.401205</ele>
        <time>2024-07-14T10:17:21.630Z</time>
      </trkpt>
      <trkpt lat="48.70006" lon="2.12698">
        <ele>64.358863</ele>
        <time>2024-07-14T10:18:00.718Z</time>
      </trkpt>
      <trkpt lat="48.69972" lon="2.12781">
        <ele>64.289065</ele>
        <time>2024-07-14T10:19:05.493Z</time>
      </trkpt>
      <trkpt lat="48.69957" lon="2.12828">
        <ele>64.266198</ele>
        <time>2024-07-14T10:19:40.018Z</time>
      </trkpt>
      <trkpt lat="48.69952" lon="2.12845">
        <ele>64.267841</ele>
        <time>2024-07-14T10:19:52.730Z</time>
      </trkpt>
      <trkpt lat="48.69934" lon="2.1292">
        <ele>64.274693</ele>
        <time>2024-07-14T10:20:45.752Z</time>
      </trkpt>
      <trkpt lat="48.69985" lon="2.12943">
        <ele>64.281668</ele>
        <time>2024-07-14T10:21:39.486Z</time>
      </trkpt>
      <trkpt lat="48.70067" lon="2.12967">
        <ele>64.414672</ele>
        <time>2024-07-14T10:23:03.862Z</time>
      </trkpt>
      <trkpt lat="48.70095" lon="2.12978">
        <ele>64.523149</ele>
        <time>2024-07-14T10:23:33.461Z</time>
      </trkpt>
      <trkpt lat="48.70087" lon="2.13078">
        <ele>64.77085</ele>
        <time>2024-07-14T10:24:40.765Z</time>
      </trkpt>
      <trkpt lat="48.70082" lon="2.13099">
        <ele>64.826302</ele>
        <time>2024-07-14T10:24:55.815Z</time>
      </trkpt>
      <trkpt lat="48.70076" lon="2.13117">
        <ele>64.87464</ele>
        <time>2024-07-14T10:25:09.012Z</time>
      </trkpt>
      <trkpt lat="48.70078" lon="2.13121">
        <ele>64.887709</ele>
        <time>2024-07-14T10:25:12.658Z</time>
      </trkpt>
      <trkpt lat="48.70081" lon="2.13128">
        <ele>64.907154</ele>
        <time>2024-07-14T10:25:18.030Z</time>
      </trkpt>
      <trkpt lat="48.70083" lon="2.13133">
        <ele>64.923079</ele>
        <time>2024-07-14T10:25:22.478Z</time>
      </trkpt>
      <trkpt lat="48.70079" lon="2.13182">
        <ele>65.402055</ele>
        <time>2024-07-14T10:25:56.024Z</time>
      </trkpt>
      <trkpt lat="48.70078" lon="2.13196">
        <ele>65.573853</ele>
        <time>2024-07-14T10:26:05.555Z</time>
      </trkpt>
      <trkpt lat="48.70077" lon="2.13212">
        <ele>65.771324</ele>
        <time>2024-07-14T10:26:16.493Z</time>
      </trkpt>
      <trkpt lat="48.70079" lon="2.13233">
        <ele>66.033743</ele>
        <time>2024-07-14T10:26:31.444Z</time>
      </trkpt>
      <trkpt lat="48.70098" lon="2.13289">
        <ele>66.790383</ele>
        <time>2024-07-14T10:27:14.689Z</time>
      </trkpt>
      <trkpt lat="48.70104" lon="2.13305">
        <ele>67.020507</ele>
        <time>2024-07-14T10:27:27.819Z</time>
      </trkpt>
      <trkpt lat="48.70173" lon="2.13364">
        <ele>68.279453</ele>
        <time>2024-07-14T10:28:53.750Z</time>
      </trkpt>
      <trkpt lat="48.70177" lon="2.1337">
        <ele>68.279453</ele>
        <time>2024-07-14T10:29:00.225Z</time>
      </trkpt>
      <trkpt lat="48.70197" lon="2.13376">
        <ele>68.279453</ele>
        <time>2024-07-14T10:29:23.708Z</time>
      </trkpt>
      <trkpt lat="48.70214" lon="2.1338">
        <ele>68.279453</ele>
        <time>2024-07-14T10:29:44.206Z</time>
      </trkpt>
      <trkpt lat="48.70218" lon="2.13406">
        <ele>68.279453</ele>
        <time>2024-07-14T10:30:04.597Z</time>
      </trkpt>
      <trkpt lat="48.70219" lon="2.13412">
        <ele>68.279453</ele>
        <time>2024-07-14T10:30:09.449Z</time>
      </trkpt>
      <trkpt lat="48.70225" lon="2.13445">
        <ele>68.279453</ele>
        <time>2024-07-14T10:30:35.810Z</time>
      </trkpt>
      <trkpt lat="48.70232" lon="2.135">
        <ele>68.279453</ele>
        <time>2024-07-14T10:31:18.565Z</time>
      </trkpt>
      <trkpt lat="48.70236" lon="2.135">
        <ele>68.279453</ele>
        <time>2024-07-14T10:31:23.683Z</time>
      </trkpt>
      <trkpt lat="48.70249" lon="2.13503">
        <ele>68.279453</ele>
        <time>2024-07-14T10:31:38.282Z</time>
      </trkpt>
      <trkpt lat="48.70246" lon="2.13509">
        <ele>68.279453</ele>
        <time>2024-07-14T10:31:43.652Z</time>
      </trkpt>
      <trkpt lat="48.70254" lon="2.13514">
        <ele>68.279453</ele>
        <time>2024-07-14T10:31:53.047Z</time>
      </trkpt>
      <trkpt lat="48.70252" lon="2.1353">
        <ele>68.279453</ele>
        <time>2024-07-14T10:32:05.161Z</time>
      </trkpt>
      <trkpt lat="48.7028" lon="2.13541">
        <ele>68.279453</ele>
        <time>2024-07-14T10:32:37.743Z</time>
      </trkpt>
    </trkseg>
  </trk>
</gpx>